Time;durP1;ratioP1;P1;durP2;ratioP2;P2;SDS_P1;SDS_P2;PMS_P1;PMS_P2;Temp;Humidity;BMP_temperature;BMP_pressure;BME280_temperature;BME280_humidity;BME280_pressure;Samples;Min_cycle;Max_cycle;Signal;HPM_P1;HPM_P2
2021/09/23 00:01:10;;;;;;;21.85;15.73;;;;;;;;;;6227754;28;20053;-70
2021/09/23 00:04:31;;;;;;;21.70;15.55;;;;;;;;;;6233526;28;20120;-72
2021/09/23 00:07:33;;;;;;;18.08;14.70;;;;;;;;;;6241052;28;20053;-72
2021/09/23 00:10:37;;;;;;;18.75;14.73;;;;;;;;;;6225458;28;20411;-72
2021/09/23 00:13:40;;;;;;;17.63;14.93;;;;;;;;;;6215204;28;20054;-72
2021/09/23 00:16:42;;;;;;;17.95;14.43;;;;;;;;;;6208737;28;20050;-72
2021/09/23 00:19:44;;;;;;;22.13;15.65;;;;;;;;;;6205277;28;20054;-71
2021/09/23 00:22:46;;;;;;;21.48;14.35;;;;;;;;;;6204016;28;20892;-72
2021/09/23 00:25:48;;;;;;;18.25;14.32;;;;;;;;;;6209485;28;20099;-72
2021/09/23 00:28:50;;;;;;;20.08;15.60;;;;;;;;;;6224947;28;20050;-72
2021/09/23 00:31:52;;;;;;;18.90;14.77;;;;;;;;;;6227056;28;20203;-72
2021/09/23 00:34:54;;;;;;;20.20;14.93;;;;;;;;;;6238588;28;20459;-72
2021/09/23 00:37:55;;;;;;;18.92;15.70;;;;;;;;;;6229033;28;20048;-72
2021/09/23 00:40:57;;;;;;;46.25;27.10;;;;;;;;;;6231868;28;20045;-72
2021/09/23 00:44:13;;;;;;;52.03;26.45;;;;;;;;;;6237380;28;20120;-72
2021/09/23 00:47:14;;;;;;;41.90;23.48;;;;;;;;;;6224016;28;20175;-72
2021/09/23 00:50:17;;;;;;;23.17;18.42;;;;;;;;;;6233932;28;20144;-72
2021/09/23 00:53:19;;;;;;;23.48;16.88;;;;;;;;;;6235754;28;20148;-73
2021/09/23 00:56:21;;;;;;;19.27;15.57;;;;;;;;;;6233905;28;20053;-72
2021/09/23 00:59:24;;;;;;;21.38;16.45;;;;;;;;;;6240982;28;20682;-72
2021/09/23 01:02:25;;;;;;;19.47;15.67;;;;;;;;;;6228196;28;20048;-72
2021/09/23 01:05:27;;;;;;;19.92;15.38;;;;;;;;;;6232248;28;20538;-72
2021/09/23 01:08:29;;;;;;;17.27;15.32;;;;;;;;;;6237087;28;20202;-72
2021/09/23 01:11:31;;;;;;;19.40;16.00;;;;;;;;;;6236308;28;20045;-72
2021/09/23 01:14:33;;;;;;;23.05;16.20;;;;;;;;;;6239837;28;20058;-72
2021/09/23 01:17:36;;;;;;;22.93;16.87;;;;;;;;;;6227300;28;20102;-72
2021/09/23 01:20:37;;;;;;;21.05;15.25;;;;;;;;;;6225868;28;20127;-72
2021/09/23 01:23:41;;;;;;;19.88;16.27;;;;;;;;;;6239626;28;20049;-72
2021/09/23 01:26:48;;;;;;;23.52;15.38;;;;;;;;;;6232668;28;20095;-72
2021/09/23 01:29:49;;;;;;;17.73;14.32;;;;;;;;;;6237436;28;20049;-72
2021/09/23 01:32:51;;;;;;;18.98;14.15;;;;;;;;;;6225713;28;20136;-72
2021/09/23 01:35:53;;;;;;;19.58;14.57;;;;;;;;;;6228542;28;20045;-72
2021/09/23 01:38:56;;;;;;;24.65;15.27;;;;;;;;;;6237824;28;20045;-72
2021/09/23 01:41:58;;;;;;;17.47;14.10;;;;;;;;;;6233977;28;20091;-72
2021/09/23 01:45:01;;;;;;;17.90;14.98;;;;;;;;;;6235204;28;20566;-72
2021/09/23 01:48:02;;;;;;;18.65;14.90;;;;;;;;;;6220274;28;20049;-72
2021/09/23 01:51:04;;;;;;;16.92;14.38;;;;;;;;;;6232077;28;20599;-72
2021/09/23 01:54:07;;;;;;;17.02;13.93;;;;;;;;;;6239478;28;20053;-72
2021/09/23 01:57:08;;;;;;;19.50;14.30;;;;;;;;;;6233481;28;20387;-72
2021/09/23 02:00:11;;;;;;;19.52;14.48;;;;;;;;;;6231139;28;20492;-71
2021/09/23 02:03:12;;;;;;;18.58;13.98;;;;;;;;;;6231304;28;20046;-72
2021/09/23 02:06:14;;;;;;;17.35;15.00;;;;;;;;;;6230780;28;20187;-71
2021/09/23 02:09:17;;;;;;;18.90;14.40;;;;;;;;;;6236666;28;20120;-72
2021/09/23 02:12:21;;;;;;;18.07;14.03;;;;;;;;;;6232863;28;20041;-72
2021/09/23 02:15:23;;;;;;;17.80;14.43;;;;;;;;;;6237798;28;20060;-72
2021/09/23 02:18:25;;;;;;;22.40;14.43;;;;;;;;;;6233621;28;20067;-72
2021/09/23 02:21:26;;;;;;;17.50;14.35;;;;;;;;;;6238284;28;20102;-72
2021/09/23 02:24:29;;;;;;;17.88;14.75;;;;;;;;;;6232862;28;20052;-73
2021/09/23 02:27:31;;;;;;;18.27;14.73;;;;;;;;;;6233688;28;20416;-72
2021/09/23 02:30:32;;;;;;;18.95;14.93;;;;;;;;;;6220480;28;20070;-72
2021/09/23 02:33:34;;;;;;;19.23;15.10;;;;;;;;;;6222488;28;20110;-72
2021/09/23 02:36:35;;;;;;;18.58;14.77;;;;;;;;;;6234378;28;21529;-72
2021/09/23 02:39:38;;;;;;;19.35;14.68;;;;;;;;;;6235648;28;20139;-72
2021/09/23 02:42:42;;;;;;;18.30;15.07;;;;;;;;;;6230480;28;20161;-72
2021/09/23 02:45:44;;;;;;;19.67;13.75;;;;;;;;;;6229204;28;20935;-72
2021/09/23 02:48:45;;;;;;;17.77;14.15;;;;;;;;;;6232318;28;20142;-72
2021/09/23 02:51:47;;;;;;;19.67;15.30;;;;;;;;;;6231570;28;20086;-72
2021/09/23 02:54:50;;;;;;;17.75;15.05;;;;;;;;;;6226623;28;20128;-72
2021/09/23 02:57:52;;;;;;;16.67;13.43;;;;;;;;;;6231924;28;20106;-72
2021/09/23 03:00:54;;;;;;;17.83;14.45;;;;;;;;;;6231978;28;20045;-72
2021/09/23 03:03:55;;;;;;;18.35;14.07;;;;;;;;;;6234263;28;20057;-72
2021/09/23 03:06:57;;;;;;;18.00;14.80;;;;;;;;;;6230306;28;20598;-72
2021/09/23 03:10:00;;;;;;;17.58;14.52;;;;;;;;;;6237168;28;20057;-72
2021/09/23 03:13:02;;;;;;;19.23;14.90;;;;;;;;;;6220465;28;20409;-72
2021/09/23 03:16:04;;;;;;;18.65;14.35;;;;;;;;;;6208462;28;20041;-73
2021/09/23 03:19:05;;;;;;;21.05;14.73;;;;;;;;;;6236015;28;20406;-73
2021/09/23 03:22:07;;;;;;;18.77;14.07;;;;;;;;;;6231357;28;20163;-72
2021/09/23 03:25:10;;;;;;;19.13;14.02;;;;;;;;;;6235766;28;20045;-72
2021/09/23 03:28:12;;;;;;;17.50;13.70;;;;;;;;;;6228235;28;20510;-72
2021/09/23 03:31:14;;;;;;;17.40;13.77;;;;;;;;;;6206058;28;20226;-72
2021/09/23 03:34:16;;;;;;;20.92;14.10;;;;;;;;;;6212476;28;20125;-72
2021/09/23 03:37:17;;;;;;;19.17;13.93;;;;;;;;;;6205887;28;20166;-72
2021/09/23 03:40:20;;;;;;;16.27;12.77;;;;;;;;;;6212566;28;20409;-72
2021/09/23 03:43:22;;;;;;;16.25;12.95;;;;;;;;;;6229064;28;20139;-72
2021/09/23 03:46:23;;;;;;;17.08;12.95;;;;;;;;;;6234180;28;20111;-72
2021/09/23 03:49:25;;;;;;;15.23;12.82;;;;;;;;;;6241898;28;20120;-71
2021/09/23 03:52:27;;;;;;;16.52;12.38;;;;;;;;;;6233162;28;20079;-72
2021/09/23 03:55:30;;;;;;;17.25;13.05;;;;;;;;;;6238180;28;20537;-72
2021/09/23 03:58:32;;;;;;;14.63;12.32;;;;;;;;;;6238678;28;20485;-73
2021/09/23 04:01:34;;;;;;;18.85;12.80;;;;;;;;;;6232092;28;20048;-72
2021/09/23 04:04:35;;;;;;;17.98;12.63;;;;;;;;;;6239109;28;20609;-72
2021/09/23 04:07:37;;;;;;;17.75;12.32;;;;;;;;;;6238697;28;20736;-72
2021/09/23 04:10:40;;;;;;;15.55;12.13;;;;;;;;;;6231524;28;20117;-72
2021/09/23 04:13:42;;;;;;;15.57;12.73;;;;;;;;;;6218307;28;20042;-72
2021/09/23 04:16:43;;;;;;;20.55;13.10;;;;;;;;;;6206351;28;21099;-72
2021/09/23 04:19:45;;;;;;;14.73;11.93;;;;;;;;;;6212126;28;20096;-72
2021/09/23 04:22:48;;;;;;;16.48;12.10;;;;;;;;;;6232517;28;20057;-72
2021/09/23 04:25:51;;;;;;;16.87;12.47;;;;;;;;;;6219480;28;20034;-72
2021/09/23 04:28:52;;;;;;;15.90;12.00;;;;;;;;;;6216282;28;20117;-72
2021/09/23 04:31:54;;;;;;;18.23;12.38;;;;;;;;;;6205898;28;20086;-72
2021/09/23 04:34:56;;;;;;;18.83;13.02;;;;;;;;;;6215856;28;20054;-72
2021/09/23 04:37:57;;;;;;;16.38;12.80;;;;;;;;;;6225940;28;20120;-72
2021/09/23 04:41:00;;;;;;;17.42;12.30;;;;;;;;;;6226504;28;20099;-73
2021/09/23 04:44:02;;;;;;;15.47;12.20;;;;;;;;;;6216693;28;20053;-72
2021/09/23 04:47:04;;;;;;;14.48;12.32;;;;;;;;;;6210635;28;20037;-72
2021/09/23 04:50:06;;;;;;;15.15;11.80;;;;;;;;;;6239372;28;20128;-72
2021/09/23 04:53:08;;;;;;;17.55;12.93;;;;;;;;;;6233225;28;20071;-73
2021/09/23 04:56:11;;;;;;;16.95;13.20;;;;;;;;;;6234720;28;20045;-72
2021/09/23 04:59:13;;;;;;;18.80;12.73;;;;;;;;;;6238781;28;20045;-72
2021/09/23 05:02:14;;;;;;;16.92;12.82;;;;;;;;;;6230230;28;20049;-72
2021/09/23 05:05:16;;;;;;;18.67;12.75;;;;;;;;;;6236968;28;20482;-72
2021/09/23 05:08:17;;;;;;;16.92;12.48;;;;;;;;;;6235767;28;20057;-72
2021/09/23 05:11:20;;;;;;;15.73;12.15;;;;;;;;;;6234743;28;20072;-72
2021/09/23 05:14:22;;;;;;;16.13;12.67;;;;;;;;;;6240343;28;20049;-72
2021/09/23 05:17:23;;;;;;;18.02;12.77;;;;;;;;;;6228870;28;20037;-72
2021/09/23 05:20:25;;;;;;;19.23;12.95;;;;;;;;;;6232171;28;20037;-72
2021/09/23 05:23:27;;;;;;;17.08;12.65;;;;;;;;;;6227987;28;20431;-72
2021/09/23 05:26:30;;;;;;;20.77;13.70;;;;;;;;;;6227198;28;20142;-73
2021/09/23 05:29:31;;;;;;;18.90;12.27;;;;;;;;;;6227991;28;20143;-73
2021/09/23 05:32:33;;;;;;;21.13;13.50;;;;;;;;;;6208644;28;20183;-72
2021/09/23 05:35:35;;;;;;;19.48;13.20;;;;;;;;;;6211513;28;20096;-72
2021/09/23 05:38:37;;;;;;;16.20;12.57;;;;;;;;;;6222515;28;20140;-72
2021/09/23 05:41:41;;;;;;;18.20;12.82;;;;;;;;;;6231656;28;20053;-71
2021/09/23 05:44:42;;;;;;;18.85;13.07;;;;;;;;;;6238616;28;20577;-71
2021/09/23 05:47:46;;;;;;;18.30;12.90;;;;;;;;;;6231981;28;20412;-71
2021/09/23 05:50:47;;;;;;;18.02;12.70;;;;;;;;;;6229430;28;20049;-71
2021/09/23 05:53:49;;;;;;;18.50;13.05;;;;;;;;;;6238199;28;20613;-71
2021/09/23 05:56:52;;;;;;;17.73;13.80;;;;;;;;;;6232214;28;20142;-71
2021/09/23 05:59:54;;;;;;;16.70;12.33;;;;;;;;;;6238081;28;20639;-71
2021/09/23 06:02:55;;;;;;;18.98;14.48;;;;;;;;;;6223297;28;20648;-71
2021/09/23 06:05:57;;;;;;;22.15;13.77;;;;;;;;;;6229798;28;20144;-71
2021/09/23 06:08:59;;;;;;;21.75;13.27;;;;;;;;;;6243998;28;20754;-72
2021/09/23 06:12:03;;;;;;;20.23;13.35;;;;;;;;;;6234632;28;20045;-72
2021/09/23 06:15:06;;;;;;;17.50;13.50;;;;;;;;;;6210777;28;20132;-72
2021/09/23 06:18:08;;;;;;;16.42;12.45;;;;;;;;;;6222941;28;20327;-71
2021/09/23 06:21:09;;;;;;;16.88;12.63;;;;;;;;;;6220418;28;20175;-72
2021/09/23 06:24:11;;;;;;;17.60;12.50;;;;;;;;;;6240691;28;20080;-71
2021/09/23 06:27:14;;;;;;;21.30;12.60;;;;;;;;;;6235188;28;20061;-71
2021/09/23 06:30:17;;;;;;;17.35;13.05;;;;;;;;;;6236182;28;22040;-72
2021/09/23 06:33:18;;;;;;;16.23;12.27;;;;;;;;;;6230218;28;20091;-71
2021/09/23 06:36:20;;;;;;;15.55;11.98;;;;;;;;;;6209764;28;20144;-71
2021/09/23 06:39:22;;;;;;;15.82;11.60;;;;;;;;;;6239595;28;20144;-71
2021/09/23 06:42:26;;;;;;;15.45;11.50;;;;;;;;;;6235381;28;20560;-71
2021/09/23 06:45:28;;;;;;;14.13;11.18;;;;;;;;;;6230861;28;20141;-71
2021/09/23 06:48:30;;;;;;;15.27;11.73;;;;;;;;;;6224907;28;20045;-71
2021/09/23 06:51:32;;;;;;;13.98;10.73;;;;;;;;;;6230359;28;20049;-73
2021/09/23 06:54:34;;;;;;;15.55;10.38;;;;;;;;;;6231453;28;20129;-72
2021/09/23 06:57:37;;;;;;;11.23;8.70;;;;;;;;;;6222641;28;20075;-72
2021/09/23 07:00:38;;;;;;;15.40;9.98;;;;;;;;;;6230887;28;20045;-72
2021/09/23 07:03:40;;;;;;;10.90;8.82;;;;;;;;;;6238676;28;20041;-72
2021/09/23 07:06:42;;;;;;;14.20;9.55;;;;;;;;;;6229346;28;20136;-70
2021/09/23 07:09:44;;;;;;;11.25;9.77;;;;;;;;;;6239892;28;20144;-70
2021/09/23 07:12:47;;;;;;;12.38;9.85;;;;;;;;;;6225485;28;20053;-71
2021/09/23 07:15:49;;;;;;;16.88;9.52;;;;;;;;;;6216975;28;20532;-72
2021/09/23 07:18:50;;;;;;;14.88;9.32;;;;;;;;;;6233611;28;20045;-70
2021/09/23 07:21:52;;;;;;;13.82;9.60;;;;;;;;;;6213391;28;20554;-69
2021/09/23 07:24:53;;;;;;;13.63;10.07;;;;;;;;;;6212248;28;20056;-69
2021/09/23 07:27:57;;;;;;;12.10;9.63;;;;;;;;;;6207369;28;20058;-72
2021/09/23 07:30:58;;;;;;;;;;;;;;;;;;6230709;28;20041;-72
2021/09/23 07:34:00;;;;;;;13.80;9.15;;;;;;;;;;6232757;28;20031;-70
2021/09/23 07:37:04;;;;;;;12.23;9.57;;;;;;;;;;6231703;28;20128;-72
2021/09/23 07:40:07;;;;;;;12.25;9.63;;;;;;;;;;6250313;28;20046;-70
2021/09/23 07:43:10;;;;;;;10.82;8.70;;;;;;;;;;6239476;28;20421;-69
2021/09/23 07:46:11;;;;;;;14.25;9.13;;;;;;;;;;6226365;28;20050;-70
2021/09/23 07:49:13;;;;;;;10.40;8.45;;;;;;;;;;6232506;28;20132;-72
2021/09/23 07:52:15;;;;;;;12.38;8.63;;;;;;;;;;6228173;28;20496;-71
2021/09/23 07:55:16;;;;;;;11.98;8.52;;;;;;;;;;6223685;28;20084;-71
2021/09/23 07:58:19;;;;;;;13.30;8.30;;;;;;;;;;6236119;28;20467;-68
2021/09/23 08:01:21;;;;;;;9.93;8.75;;;;;;;;;;6226380;28;20120;-71
2021/09/23 08:04:23;;;;;;;14.80;9.48;;;;;;;;;;6227654;28;20155;-71
2021/09/23 08:07:24;;;;;;;12.43;8.82;;;;;;;;;;6228635;28;20172;-71
2021/09/23 08:10:26;;;;;;;11.35;8.73;;;;;;;;;;6229864;28;20044;-71
2021/09/23 08:13:30;;;;;;;13.23;8.93;;;;;;;;;;6237155;28;20735;-70
2021/09/23 08:16:31;;;;;;;12.73;10.00;;;;;;;;;;6226552;28;20050;-71
2021/09/23 08:19:35;;;;;;;11.65;9.25;;;;;;;;;;6233715;28;20075;-70
2021/09/23 08:22:37;;;;;;;8.88;7.97;;;;;;;;;;6218661;28;20053;-70
2021/09/23 08:25:39;;;;;;;9.38;7.90;;;;;;;;;;6229747;28;20130;-70
2021/09/23 08:28:42;;;;;;;13.40;8.75;;;;;;;;;;6241481;28;20191;-71
2021/09/23 08:31:43;;;;;;;12.98;8.68;;;;;;;;;;6230192;28;20124;-71
2021/09/23 08:34:45;;;;;;;10.20;8.93;;;;;;;;;;6239313;28;20570;-71
2021/09/23 08:37:47;;;;;;;10.23;7.60;;;;;;;;;;6230230;28;20052;-71
2021/09/23 08:40:49;;;;;;;9.05;6.88;;;;;;;;;;6233405;28;20038;-71
2021/09/23 08:43:52;;;;;;;10.75;8.13;;;;;;;;;;6248675;28;20066;-71
2021/09/23 08:46:54;;;;;;;11.23;7.55;;;;;;;;;;6231328;28;20042;-71
2021/09/23 08:49:55;;;;;;;11.15;6.63;;;;;;;;;;6240332;28;20139;-71
2021/09/23 08:52:57;;;;;;;7.05;5.97;;;;;;;;;;6209908;28;20154;-70
2021/09/23 08:55:59;;;;;;;7.53;6.18;;;;;;;;;;6220194;28;20246;-71
2021/09/23 08:59:02;;;;;;;9.68;7.13;;;;;;;;;;6241898;28;20094;-71
2021/09/23 09:02:05;;;;;;;7.13;6.03;;;;;;;;;;6217879;28;20791;-71
2021/09/23 09:05:07;;;;;;;9.38;6.47;;;;;;;;;;6249216;28;20361;-71
2021/09/23 09:08:11;;;;;;;7.73;6.10;;;;;;;;;;6237213;28;20049;-71
2021/09/23 09:11:14;;;;;;;7.95;6.07;;;;;;;;;;6232380;28;20045;-69
2021/09/23 09:14:24;;;;;;;7.88;6.35;;;;;;;;;;6237796;28;20041;-71
2021/09/23 09:17:27;;;;;;;8.80;6.82;;;;;;;;;;6226342;28;20049;-71
2021/09/23 09:20:29;;;;;;;9.40;7.20;;;;;;;;;;6229572;28;20167;-71
2021/09/23 09:23:39;;;;;;;9.00;7.22;;;;;;;;;;6238130;28;20072;-71
2021/09/23 09:26:41;;;;;;;7.80;6.75;;;;;;;;;;6228953;28;20414;-71
2021/09/23 09:29:53;;;;;;;6.70;6.00;;;;;;;;;;6239508;28;20052;-71
2021/09/23 09:32:57;;;;;;;9.97;6.27;;;;;;;;;;6225444;28;20102;-71
2021/09/23 09:35:59;;;;;;;7.82;6.20;;;;;;;;;;6232485;28;20075;-69
2021/09/23 09:39:02;;;;;;;6.97;5.53;;;;;;;;;;6240691;28;20087;-69
2021/09/23 09:42:04;;;;;;;11.38;6.78;;;;;;;;;;6233159;28;20064;-71
2021/09/23 09:45:08;;;;;;;7.45;6.70;;;;;;;;;;6239713;28;20521;-69
2021/09/23 09:48:10;;;;;;;9.13;6.32;;;;;;;;;;6214179;28;20062;-69
2021/09/23 09:51:11;;;;;;;8.15;6.90;;;;;;;;;;6231432;28;20056;-69
2021/09/23 09:54:15;;;;;;;8.45;6.18;;;;;;;;;;6238345;28;20540;-69
2021/09/23 09:57:26;;;;;;;7.05;6.03;;;;;;;;;;6231960;28;20037;-69
2021/09/23 10:00:30;;;;;;;7.95;6.25;;;;;;;;;;6234327;28;20071;-69
2021/09/23 10:03:33;;;;;;;5.78;5.13;;;;;;;;;;6232005;28;20154;-70
2021/09/23 10:06:35;;;;;;;7.90;6.00;;;;;;;;;;6212868;28;20060;-71
2021/09/23 10:09:37;;;;;;;9.15;6.95;;;;;;;;;;6237870;28;20057;-71
2021/09/23 10:12:41;;;;;;;7.60;6.88;;;;;;;;;;6230031;28;20477;-71
2021/09/23 10:15:45;;;;;;;8.45;6.05;;;;;;;;;;6231273;28;20042;-71
2021/09/23 10:18:46;;;;;;;6.45;5.85;;;;;;;;;;6231449;28;20056;-70
2021/09/23 10:21:48;;;;;;;8.77;6.20;;;;;;;;;;6230407;28;20053;-71
2021/09/23 10:24:50;;;;;;;7.20;6.50;;;;;;;;;;6237394;28;20194;-71
2021/09/23 10:28:01;;;;;;;7.23;6.53;;;;;;;;;;6222388;28;20211;-70
2021/09/23 10:31:08;;;;;;;8.35;6.25;;;;;;;;;;6221535;28;20095;-71
2021/09/23 10:34:10;;;;;;;6.25;5.65;;;;;;;;;;6233462;28;20403;-71
2021/09/23 10:37:12;;;;;;;9.90;6.30;;;;;;;;;;6231162;28;20363;-71
2021/09/23 10:40:16;;;;;;;7.60;5.65;;;;;;;;;;6232488;28;20495;-71
2021/09/23 10:43:19;;;;;;;10.43;5.80;;;;;;;;;;6233979;28;20053;-71
2021/09/23 10:46:25;;;;;;;8.65;6.28;;;;;;;;;;6228775;28;20795;-71
2021/09/23 10:49:27;;;;;;;6.38;4.80;;;;;;;;;;6235086;28;20111;-71
2021/09/23 10:52:30;;;;;;;10.30;4.65;;;;;;;;;;6230083;28;20064;-71
2021/09/23 10:55:35;;;;;;;10.75;5.15;;;;;;;;;;6231387;28;20068;-71
2021/09/23 10:58:39;;;;;;;7.03;5.38;;;;;;;;;;6237690;28;20251;-71
2021/09/23 11:01:43;;;;;;;6.10;5.50;;;;;;;;;;6225514;28;20204;-71
2021/09/23 11:04:46;;;;;;;9.00;6.40;;;;;;;;;;6236249;28;20148;-71
2021/09/23 11:07:49;;;;;;;5.82;5.05;;;;;;;;;;6227749;28;20046;-70
2021/09/23 11:10:51;;;;;;;6.50;5.15;;;;;;;;;;6231430;28;20120;-70
2021/09/23 11:13:52;;;;;;;7.95;5.28;;;;;;;;;;6237425;28;20497;-70
2021/09/23 11:16:57;;;;;;;6.72;5.45;;;;;;;;;;6226683;28;20167;-70
2021/09/23 11:19:59;;;;;;;7.68;5.50;;;;;;;;;;6234663;28;20037;-71
2021/09/23 11:23:03;;;;;;;6.20;5.60;;;;;;;;;;6202440;28;20065;-70
2021/09/23 11:26:06;;;;;;;7.68;6.22;;;;;;;;;;6225046;28;20087;-71
2021/09/23 11:29:08;;;;;;;6.28;4.78;;;;;;;;;;6230825;28;20049;-71
2021/09/23 11:32:10;;;;;;;;;;;;;;;;;;6224561;28;20128;-71
2021/09/23 11:35:12;;;;;;;7.22;5.60;;;;;;;;;;6232855;28;19929;-70
2021/09/23 11:38:19;;;;;;;6.30;5.72;;;;;;;;;;6229147;28;20066;-69
2021/09/23 11:41:20;;;;;;;7.00;6.18;;;;;;;;;;6233400;28;20041;-70
2021/09/23 11:44:25;;;;;;;7.38;6.65;;;;;;;;;;6245602;28;20053;-70
2021/09/23 11:47:28;;;;;;;6.55;5.95;;;;;;;;;;6233865;28;20053;-70
2021/09/23 11:50:33;;;;;;;7.55;6.35;;;;;;;;;;6228624;28;20054;-70
2021/09/23 11:53:37;;;;;;;7.00;6.40;;;;;;;;;;6238067;28;20061;-70
2021/09/23 11:56:41;;;;;;;9.85;6.38;;;;;;;;;;6231696;28;20061;-69
2021/09/23 11:59:54;;;;;;;7.78;6.97;;;;;;;;;;6238090;28;20087;-69
2021/09/23 12:02:57;;;;;;;8.85;7.57;;;;;;;;;;6234137;28;20038;-69
2021/09/23 12:05:58;;;;;;;9.10;8.20;;;;;;;;;;6231672;28;20183;-70
2021/09/23 12:09:06;;;;;;;8.00;7.30;;;;;;;;;;6255829;28;20057;-70
2021/09/23 12:12:08;;;;;;;10.05;8.30;;;;;;;;;;6238332;28;20049;-70
2021/09/23 12:15:10;;;;;;;7.47;6.40;;;;;;;;;;6239705;28;20164;-70
2021/09/23 12:18:13;;;;;;;7.07;6.38;;;;;;;;;;6199044;28;20759;-70
2021/09/23 12:21:17;;;;;;;7.15;6.43;;;;;;;;;;6208924;28;20168;-69
2021/09/23 12:24:19;;;;;;;7.78;7.07;;;;;;;;;;6218240;28;20632;-69
2021/09/23 12:27:21;;;;;;;9.05;8.15;;;;;;;;;;6210090;28;20060;-71
2021/09/23 12:30:26;;;;;;;8.70;7.65;;;;;;;;;;6215598;28;20906;-72
2021/09/23 12:33:29;;;;;;;9.65;8.00;;;;;;;;;;6221922;28;20041;-71
2021/09/23 12:36:33;;;;;;;9.82;8.43;;;;;;;;;;6238762;28;20089;-71
2021/09/23 12:39:39;;;;;;;9.45;8.23;;;;;;;;;;6243055;28;20497;-71
2021/09/23 12:42:41;;;;;;;9.38;7.28;;;;;;;;;;6235933;28;20049;-70
2021/09/23 12:45:43;;;;;;;10.20;7.57;;;;;;;;;;6231596;28;20103;-71
2021/09/23 12:48:48;;;;;;;8.13;7.18;;;;;;;;;;6230856;28;20065;-71
2021/09/23 12:51:49;;;;;;;8.57;7.65;;;;;;;;;;6234497;28;20147;-71
2021/09/23 12:54:57;;;;;;;10.23;7.30;;;;;;;;;;6249425;28;20042;-70
2021/09/23 12:58:00;;;;;;;8.55;7.32;;;;;;;;;;6238301;28;20050;-70
2021/09/23 13:01:17;;;;;;;9.60;8.02;;;;;;;;;;6225713;28;20418;-70
2021/09/23 13:04:24;;;;;;;10.88;7.97;;;;;;;;;;6240053;28;20128;-70
2021/09/23 13:07:25;;;;;;;9.75;8.32;;;;;;;;;;6229918;28;20042;-70
2021/09/23 13:10:32;;;;;;;10.93;7.20;;;;;;;;;;6232181;28;20269;-70
2021/09/23 13:13:34;;;;;;;7.60;6.65;;;;;;;;;;6243574;28;20120;-70
2021/09/23 13:16:39;;;;;;;7.85;5.95;;;;;;;;;;6230738;28;20134;-70
2021/09/23 13:19:42;;;;;;;7.30;5.90;;;;;;;;;;6245908;28;20060;-70
2021/09/23 13:22:43;;;;;;;9.77;6.57;;;;;;;;;;6216698;28;20042;-70
2021/09/23 13:25:45;;;;;;;11.90;7.43;;;;;;;;;;6232116;28;20141;-70
2021/09/23 13:28:47;;;;;;;10.32;5.97;;;;;;;;;;6250438;28;20050;-70
2021/09/23 13:31:49;;;;;;;8.90;7.95;;;;;;;;;;6235859;28;20045;-70
2021/09/23 13:34:52;;;;;;;10.57;7.07;;;;;;;;;;6241654;28;20171;-70
2021/09/23 13:37:53;;;;;;;8.50;7.20;;;;;;;;;;6231315;28;20136;-70
2021/09/23 13:40:57;;;;;;;8.45;7.65;;;;;;;;;;6237720;28;20111;-70
2021/09/23 13:43:59;;;;;;;9.60;8.50;;;;;;;;;;6249095;28;20131;-70
2021/09/23 13:47:02;;;;;;;12.63;7.97;;;;;;;;;;6235186;28;20136;-70
2021/09/23 13:50:07;;;;;;;8.02;6.78;;;;;;;;;;6239485;28;20511;-70
2021/09/23 13:53:09;;;;;;;6.40;5.68;;;;;;;;;;6239190;28;20049;-70
2021/09/23 13:56:11;;;;;;;6.70;5.60;;;;;;;;;;6235516;28;20042;-70
2021/09/23 13:59:12;;;;;;;8.63;6.47;;;;;;;;;;6244274;28;20055;-70
2021/09/23 14:02:14;;;;;;;10.90;5.80;;;;;;;;;;6235252;28;20157;-70
2021/09/23 14:05:17;;;;;;;16.13;6.70;;;;;;;;;;6220215;28;20037;-70
2021/09/23 14:08:21;;;;;;;;;;;;;;;;;;6238446;28;20080;-71
2021/09/23 14:11:23;;;;;;;8.27;5.80;;;;;;;;;;6234490;28;19921;-70
2021/09/23 14:14:25;;;;;;;7.13;5.95;;;;;;;;;;6243317;28;20046;-70
2021/09/23 14:17:26;;;;;;;8.77;6.10;;;;;;;;;;6230737;28;20619;-71
2021/09/23 14:20:29;;;;;;;7.72;6.93;;;;;;;;;;6233769;28;20618;-71
2021/09/23 14:23:31;;;;;;;9.77;6.43;;;;;;;;;;6238092;28;20049;-71
2021/09/23 14:26:33;;;;;;;8.80;6.50;;;;;;;;;;6231238;28;20050;-70
2021/09/23 14:29:37;;;;;;;8.77;5.90;;;;;;;;;;6239802;28;20489;-71
2021/09/23 14:32:38;;;;;;;9.82;6.80;;;;;;;;;;6225272;28;20543;-71
2021/09/23 14:35:41;;;;;;;9.77;6.57;;;;;;;;;;6228965;28;20998;-70
2021/09/23 14:38:45;;;;;;;6.97;5.63;;;;;;;;;;6240749;28;20458;-71
2021/09/23 14:41:47;;;;;;;9.15;6.10;;;;;;;;;;6233032;28;20041;-71
2021/09/23 14:44:50;;;;;;;;;;;;;;;;;;6238343;28;20050;-71
2021/09/23 14:47:51;;;;;;;8.17;6.63;;;;;;;;;;6234929;28;20050;-72
2021/09/23 14:50:54;;;;;;;9.47;6.40;;;;;;;;;;6232323;28;20037;-72
2021/09/23 14:53:56;;;;;;;7.65;6.03;;;;;;;;;;6242580;28;20138;-72
2021/09/23 14:56:57;;;;;;;7.53;6.73;;;;;;;;;;6234339;28;20159;-71
2021/09/23 14:59:59;;;;;;;10.20;7.13;;;;;;;;;;6244328;28;20115;-72
2021/09/23 15:03:01;;;;;;;10.23;6.30;;;;;;;;;;6227724;28;20405;-71
2021/09/23 15:06:04;;;;;;;7.38;6.40;;;;;;;;;;6227480;28;20057;-72
2021/09/23 15:09:06;;;;;;;11.30;7.80;;;;;;;;;;6234211;28;20133;-69
2021/09/23 15:12:08;;;;;;;9.27;7.03;;;;;;;;;;6212678;28;20053;-69
2021/09/23 15:15:10;;;;;;;7.78;6.70;;;;;;;;;;6215100;28;20461;-70
2021/09/23 15:18:12;;;;;;;;;;;;;;;;;;6206429;28;20639;-71
2021/09/23 15:21:16;;;;;;;9.30;6.07;;;;;;;;;;6204227;28;20020;-71
2021/09/23 15:24:18;;;;;;;9.27;6.95;;;;;;;;;;6232513;28;20163;-71
2021/09/23 15:27:20;;;;;;;10.97;7.47;;;;;;;;;;6232570;28;20124;-71
2021/09/23 15:30:22;;;;;;;9.17;6.73;;;;;;;;;;6239214;28;20061;-71
2021/09/23 15:33:24;;;;;;;8.10;7.03;;;;;;;;;;6224297;28;20184;-70
2021/09/23 15:36:27;;;;;;;10.52;7.05;;;;;;;;;;6207255;28;20625;-69
2021/09/23 15:39:28;;;;;;;12.25;7.20;;;;;;;;;;6219270;28;20049;-69
2021/09/23 15:42:30;;;;;;;7.80;6.80;;;;;;;;;;6212611;28;20046;-69
2021/09/23 15:45:32;;;;;;;10.32;6.63;;;;;;;;;;6242454;28;20141;-69
2021/09/23 15:48:34;;;;;;;9.17;7.13;;;;;;;;;;6233726;28;20390;-71
2021/09/23 15:51:37;;;;;;;9.30;5.82;;;;;;;;;;6234123;28;20157;-71
2021/09/23 15:54:38;;;;;;;8.68;6.70;;;;;;;;;;6230180;28;20042;-70
2021/09/23 15:57:41;;;;;;;9.75;7.28;;;;;;;;;;6235414;28;20077;-70
2021/09/23 16:00:43;;;;;;;8.63;7.03;;;;;;;;;;6238852;28;20041;-69
2021/09/23 16:03:44;;;;;;;8.33;6.90;;;;;;;;;;6239349;28;20383;-69
2021/09/23 16:06:49;;;;;;;6.78;6.07;;;;;;;;;;6229779;28;20042;-69
2021/09/23 16:09:51;;;;;;;8.82;6.63;;;;;;;;;;6237785;28;20046;-69
2021/09/23 16:12:53;;;;;;;8.77;6.45;;;;;;;;;;6233068;28;20696;-69
2021/09/23 16:15:56;;;;;;;7.97;6.30;;;;;;;;;;6227113;28;20877;-69
2021/09/23 16:18:59;;;;;;;9.30;6.05;;;;;;;;;;6234715;28;20049;-69
2021/09/23 16:22:02;;;;;;;8.65;6.72;;;;;;;;;;6221633;28;20413;-69
2021/09/23 16:25:05;;;;;;;7.07;6.38;;;;;;;;;;6222798;28;20367;-69
2021/09/23 16:28:06;;;;;;;8.68;7.80;;;;;;;;;;6218155;28;20140;-69
2021/09/23 16:31:08;;;;;;;8.23;7.40;;;;;;;;;;6231669;28;20111;-70
2021/09/23 16:34:10;;;;;;;9.38;7.35;;;;;;;;;;6236972;28;20041;-69
2021/09/23 16:37:12;;;;;;;8.50;7.60;;;;;;;;;;6216084;28;20085;-69
2021/09/23 16:40:15;;;;;;;10.68;9.18;;;;;;;;;;6212120;28;20144;-69
2021/09/23 16:43:16;;;;;;;11.25;9.43;;;;;;;;;;6232206;28;20193;-69
2021/09/23 16:46:18;;;;;;;12.40;9.93;;;;;;;;;;6221550;28;20048;-69
2021/09/23 16:49:19;;;;;;;11.77;9.60;;;;;;;;;;6240853;28;20046;-70
2021/09/23 16:52:22;;;;;;;10.85;8.35;;;;;;;;;;6243000;28;20049;-71
2021/09/23 16:55:24;;;;;;;;;;;;;;;;;;6241527;28;20143;-71
2021/09/23 16:58:25;;;;;;;15.07;10.18;;;;;;;;;;6257655;28;19994;-70
2021/09/23 17:01:27;;;;;;;10.60;9.43;;;;;;;;;;6244147;28;20122;-68
2021/09/23 17:04:29;;;;;;;13.23;10.10;;;;;;;;;;6242185;28;20398;-70
2021/09/23 17:07:32;;;;;;;14.23;9.90;;;;;;;;;;6222314;28;20057;-69
2021/09/23 17:10:34;;;;;;;11.50;9.85;;;;;;;;;;6211866;28;20129;-70
2021/09/23 17:13:36;;;;;;;16.67;9.82;;;;;;;;;;6216589;28;20176;-70
2021/09/23 17:16:38;;;;;;;11.40;7.93;;;;;;;;;;6208618;28;20057;-70
2021/09/23 17:19:39;;;;;;;10.25;9.15;;;;;;;;;;6218306;28;20108;-70
2021/09/23 17:22:43;;;;;;;13.20;10.10;;;;;;;;;;6212488;28;20120;-70
2021/09/23 17:25:45;;;;;;;11.07;7.93;;;;;;;;;;6213224;28;20129;-69
2021/09/23 17:28:46;;;;;;;12.70;9.00;;;;;;;;;;6239127;28;20391;-67
2021/09/23 17:31:48;;;;;;;11.95;8.60;;;;;;;;;;6230701;28;20054;-66
2021/09/23 17:34:50;;;;;;;12.02;9.13;;;;;;;;;;6240360;28;20037;-67
2021/09/23 17:37:53;;;;;;;9.75;8.75;;;;;;;;;;6233263;28;20138;-66
2021/09/23 17:40:54;;;;;;;10.15;8.13;;;;;;;;;;6234240;28;20101;-68
2021/09/23 17:43:57;;;;;;;11.13;9.00;;;;;;;;;;6246359;28;20128;-68
2021/09/23 17:46:59;;;;;;;12.43;7.87;;;;;;;;;;6222960;28;20156;-68
2021/09/23 17:50:01;;;;;;;9.80;8.80;;;;;;;;;;6204438;28;20465;-68
2021/09/23 17:53:05;;;;;;;10.93;8.73;;;;;;;;;;6206360;28;20099;-68
2021/09/23 17:56:07;;;;;;;11.40;9.02;;;;;;;;;;6220193;28;20121;-68
2021/09/23 17:59:09;;;;;;;10.30;9.13;;;;;;;;;;6221626;28;20042;-68